sensor_id;sensor_type;location;lat;lon;timestamp;pressure;altitude;pressure_sealevel;temperature
80962;BMP280;70424;55.154;14.722;2023-07-08T00:00:49;102229.88;;;16.83
80962;BMP280;70424;55.154;14.722;2023-07-08T00:03:15;102237.56;;;16.84
80962;BMP280;70424;55.154;14.722;2023-07-08T00:05:40;102234.56;;;16.80
80962;BMP280;70424;55.154;14.722;2023-07-08T00:08:13;102245.72;;;16.82
80962;BMP280;70424;55.154;14.722;2023-07-08T00:10:39;102249.81;;;16.81
80962;BMP280;70424;55.154;14.722;2023-07-08T00:13:04;102236.34;;;16.76
80962;BMP280;70424;55.154;14.722;2023-07-08T00:15:31;102237.41;;;16.71
80962;BMP280;70424;55.154;14.722;2023-07-08T00:18:00;102243.66;;;16.71
80962;BMP280;70424;55.154;14.722;2023-07-08T00:20:38;102243.53;;;16.69
80962;BMP280;70424;55.154;14.722;2023-07-08T00:23:03;102249.16;;;16.59
80962;BMP280;70424;55.154;14.722;2023-07-08T00:25:30;102250.72;;;16.62
80962;BMP280;70424;55.154;14.722;2023-07-08T00:27:56;102250.00;;;16.62
80962;BMP280;70424;55.154;14.722;2023-07-08T00:30:24;102233.13;;;16.46
80962;BMP280;70424;55.154;14.722;2023-07-08T00:32:51;102249.88;;;16.60
80962;BMP280;70424;55.154;14.722;2023-07-08T00:35:24;102239.63;;;16.51
80962;BMP280;70424;55.154;14.722;2023-07-08T00:37:52;102237.81;;;16.44
80962;BMP280;70424;55.154;14.722;2023-07-08T00:40:20;102244.06;;;16.44
80962;BMP280;70424;55.154;14.722;2023-07-08T00:42:46;102249.44;;;16.42
80962;BMP280;70424;55.154;14.722;2023-07-08T00:47:43;102236.22;;;16.41
80962;BMP280;70424;55.154;14.722;2023-07-08T00:50:09;102248.47;;;16.38
80962;BMP280;70424;55.154;14.722;2023-07-08T00:52:36;102244.97;;;16.37
80962;BMP280;70424;55.154;14.722;2023-07-08T00:55:05;102241.94;;;16.33
80962;BMP280;70424;55.154;14.722;2023-07-08T00:57:35;102245.09;;;16.39
80962;BMP280;70424;55.154;14.722;2023-07-08T01:00:04;102244.84;;;16.35
80962;BMP280;70424;55.154;14.722;2023-07-08T01:02:33;102241.38;;;16.35
80962;BMP280;70424;55.154;14.722;2023-07-08T01:07:34;102241.44;;;16.25
80962;BMP280;70424;55.154;14.722;2023-07-08T01:10:07;102242.03;;;16.23
80962;BMP280;70424;55.154;14.722;2023-07-08T01:12:37;102234.19;;;16.20
80962;BMP280;70424;55.154;14.722;2023-07-08T01:15:05;102243.09;;;16.18
80962;BMP280;70424;55.154;14.722;2023-07-08T01:17:31;102243.69;;;16.17
80962;BMP280;70424;55.154;14.722;2023-07-08T01:19:57;102238.63;;;16.13
80962;BMP280;70424;55.154;14.722;2023-07-08T01:22:22;102236.78;;;16.06
80962;BMP280;70424;55.154;14.722;2023-07-08T01:24:48;102242.16;;;16.04
80962;BMP280;70424;55.154;14.722;2023-07-08T01:27:15;102227.56;;;15.92
80962;BMP280;70424;55.154;14.722;2023-07-08T01:29:41;102231.38;;;15.87
80962;BMP280;70424;55.154;14.722;2023-07-08T01:32:11;102232.81;;;15.88
80962;BMP280;70424;55.154;14.722;2023-07-08T01:34:39;102231.84;;;15.83
80962;BMP280;70424;55.154;14.722;2023-07-08T01:37:05;102230.59;;;15.75
80962;BMP280;70424;55.154;14.722;2023-07-08T01:39:31;102219.75;;;15.67
80962;BMP280;70424;55.154;14.722;2023-07-08T01:41:58;102225.97;;;15.68
80962;BMP280;70424;55.154;14.722;2023-07-08T01:44:32;102235.56;;;15.66
80962;BMP280;70424;55.154;14.722;2023-07-08T01:47:04;102237.00;;;15.68
80962;BMP280;70424;55.154;14.722;2023-07-08T01:49:31;102238.47;;;15.69
80962;BMP280;70424;55.154;14.722;2023-07-08T01:51:56;102233.69;;;15.69
80962;BMP280;70424;55.154;14.722;2023-07-08T01:54:22;102223.81;;;15.66
80962;BMP280;70424;55.154;14.722;2023-07-08T01:56:54;102224.84;;;15.61
80962;BMP280;70424;55.154;14.722;2023-07-08T01:59:20;102218.78;;;15.62
80962;BMP280;70424;55.154;14.722;2023-07-08T02:01:45;102218.50;;;15.58
80962;BMP280;70424;55.154;14.722;2023-07-08T02:04:12;102226.94;;;15.51
80962;BMP280;70424;55.154;14.722;2023-07-08T02:06:37;102229.28;;;15.45
80962;BMP280;70424;55.154;14.722;2023-07-08T02:09:03;102231.03;;;15.40
80962;BMP280;70424;55.154;14.722;2023-07-08T02:11:28;102232.34;;;15.39
80962;BMP280;70424;55.154;14.722;2023-07-08T02:13:53;102223.38;;;15.39
80962;BMP280;70424;55.154;14.722;2023-07-08T02:16:19;102232.22;;;15.37
80962;BMP280;70424;55.154;14.722;2023-07-08T02:18:44;102236.13;;;15.34
80962;BMP280;70424;55.154;14.722;2023-07-08T02:21:10;102243.25;;;15.37
80962;BMP280;70424;55.154;14.722;2023-07-08T02:23:35;102236.13;;;15.34
80962;BMP280;70424;55.154;14.722;2023-07-08T02:26:01;102238.31;;;15.36
80962;BMP280;70424;55.154;14.722;2023-07-08T02:28:26;102242.22;;;15.32
80962;BMP280;70424;55.154;14.722;2023-07-08T02:30:51;102233.69;;;15.28
80962;BMP280;70424;55.154;14.722;2023-07-08T02:33:17;102236.75;;;15.23
80962;BMP280;70424;55.154;14.722;2023-07-08T02:35:43;102235.16;;;15.20
80962;BMP280;70424;55.154;14.722;2023-07-08T02:38:08;102238.22;;;15.14
80962;BMP280;70424;55.154;14.722;2023-07-08T02:40:34;102234.88;;;15.16
80962;BMP280;70424;55.154;14.722;2023-07-08T02:42:59;102238.22;;;15.14
80962;BMP280;70424;55.154;14.722;2023-07-08T02:45:24;102237.06;;;15.17
80962;BMP280;70424;55.154;14.722;2023-07-08T02:47:50;102242.41;;;15.15
80962;BMP280;70424;55.154;14.722;2023-07-08T02:50:15;102238.22;;;15.14
80962;BMP280;70424;55.154;14.722;2023-07-08T02:52:42;102242.16;;;15.11
80962;BMP280;70424;55.154;14.722;2023-07-08T02:55:08;102242.72;;;15.10
80962;BMP280;70424;55.154;14.722;2023-07-08T02:57:33;102241.88;;;15.07
80962;BMP280;70424;55.154;14.722;2023-07-08T02:59:59;102242.59;;;15.08
80962;BMP280;70424;55.154;14.722;2023-07-08T03:02:26;102239.13;;;15.07
80962;BMP280;70424;55.154;14.722;2023-07-08T03:04:52;102233.91;;;15.02
80962;BMP280;70424;55.154;14.722;2023-07-08T03:07:19;102233.19;;;15.01
80962;BMP280;70424;55.154;14.722;2023-07-08T03:09:45;102228.28;;;14.99
80962;BMP280;70424;55.154;14.722;2023-07-08T03:12:11;102227.38;;;15.07
80962;BMP280;70424;55.154;14.722;2023-07-08T03:14:36;102220.56;;;15.08
80962;BMP280;70424;55.154;14.722;2023-07-08T03:17:03;102222.16;;;15.11
80962;BMP280;70424;55.154;14.722;2023-07-08T03:19:29;102230.69;;;15.15
80962;BMP280;70424;55.154;14.722;2023-07-08T03:21:54;102238.34;;;15.16
80962;BMP280;70424;55.154;14.722;2023-07-08T03:24:19;102229.53;;;15.18
80962;BMP280;70424;55.154;14.722;2023-07-08T03:26:45;102227.63;;;15.20
80962;BMP280;70424;55.154;14.722;2023-07-08T03:29:14;102242.69;;;15.29
80962;BMP280;70424;55.154;14.722;2023-07-08T03:31:40;102241.50;;;15.32
80962;BMP280;70424;55.154;14.722;2023-07-08T03:34:09;102227.00;;;15.31
80962;BMP280;70424;55.154;14.722;2023-07-08T03:36:35;102231.34;;;15.35
80962;BMP280;70424;55.154;14.722;2023-07-08T03:39:02;102229.47;;;15.37
80962;BMP280;70424;55.154;14.722;2023-07-08T03:41:27;102229.00;;;15.41
80962;BMP280;70424;55.154;14.722;2023-07-08T03:43:52;102244.38;;;15.44
80962;BMP280;70424;55.154;14.722;2023-07-08T03:46:20;102230.19;;;15.38
80962;BMP280;70424;55.154;14.722;2023-07-08T03:48:46;102237.28;;;15.41
80962;BMP280;70424;55.154;14.722;2023-07-08T03:51:20;102240.44;;;15.47
80962;BMP280;70424;55.154;14.722;2023-07-08T03:53:46;102239.13;;;15.48
80962;BMP280;70424;55.154;14.722;2023-07-08T03:56:12;102243.47;;;15.51
80962;BMP280;70424;55.154;14.722;2023-07-08T03:58:38;102239.09;;;15.57
80962;BMP280;70424;55.154;14.722;2023-07-08T04:01:04;102239.34;;;15.61
80962;BMP280;70424;55.154;14.722;2023-07-08T04:03:29;102240.47;;;15.68
80962;BMP280;70424;55.154;14.722;2023-07-08T04:05:55;102238.72;;;15.73
80962;BMP280;70424;55.154;14.722;2023-07-08T04:08:20;102240.44;;;15.78
80962;BMP280;70424;55.154;14.722;2023-07-08T04:10:46;102226.34;;;15.83
80962;BMP280;70424;55.154;14.722;2023-07-08T04:13:11;102236.13;;;15.96
80962;BMP280;70424;55.154;14.722;2023-07-08T04:15:37;102236.66;;;16.04
80962;BMP280;70424;55.154;14.722;2023-07-08T04:18:02;102245.59;;;16.14
80962;BMP280;70424;55.154;14.722;2023-07-08T04:20:27;102250.66;;;16.18
80962;BMP280;70424;55.154;14.722;2023-07-08T04:22:53;102259.44;;;16.26
80962;BMP280;70424;55.154;14.722;2023-07-08T04:25:18;102255.03;;;16.32
80962;BMP280;70424;55.154;14.722;2023-07-08T04:27:44;102247.72;;;16.37
80962;BMP280;70424;55.154;14.722;2023-07-08T04:30:21;102251.53;;;16.53
80962;BMP280;70424;55.154;14.722;2023-07-08T04:32:47;102254.09;;;16.61
80962;BMP280;70424;55.154;14.722;2023-07-08T04:35:12;102254.13;;;16.73
80962;BMP280;70424;55.154;14.722;2023-07-08T04:37:37;102245.84;;;16.84
80962;BMP280;70424;55.154;14.722;2023-07-08T04:40:03;102238.78;;;16.93
80962;BMP280;70424;55.154;14.722;2023-07-08T04:42:30;102234.59;;;17.03
80962;BMP280;70424;55.154;14.722;2023-07-08T04:44:55;102235.13;;;17.12
80962;BMP280;70424;55.154;14.722;2023-07-08T04:47:20;102237.03;;;17.21
80962;BMP280;70424;55.154;14.722;2023-07-08T04:49:46;102233.41;;;17.30
80962;BMP280;70424;55.154;14.722;2023-07-08T04:52:12;102243.75;;;17.41
80962;BMP280;70424;55.154;14.722;2023-07-08T04:54:37;102241.44;;;17.49
80962;BMP280;70424;55.154;14.722;2023-07-08T04:57:03;102240.50;;;17.56
80962;BMP280;70424;55.154;14.722;2023-07-08T04:59:28;102246.00;;;17.68
80962;BMP280;70424;55.154;14.722;2023-07-08T05:01:59;102244.56;;;17.79
80962;BMP280;70424;55.154;14.722;2023-07-08T05:04:24;102244.53;;;17.90
80962;BMP280;70424;55.154;14.722;2023-07-08T05:06:50;102244.47;;;18.02
80962;BMP280;70424;55.154;14.722;2023-07-08T05:09:15;102252.75;;;18.14
80962;BMP280;70424;55.154;14.722;2023-07-08T05:11:41;102251.38;;;18.26
80962;BMP280;70424;55.154;14.722;2023-07-08T05:14:06;102259.88;;;18.42
80962;BMP280;70424;55.154;14.722;2023-07-08T05:16:33;102256.53;;;18.57
80962;BMP280;70424;55.154;14.722;2023-07-08T05:19:00;102258.13;;;18.74
80962;BMP280;70424;55.154;14.722;2023-07-08T05:21:25;102253.44;;;18.90
80962;BMP280;70424;55.154;14.722;2023-07-08T05:23:52;102257.16;;;19.08
80962;BMP280;70424;55.154;14.722;2023-07-08T05:26:18;102246.91;;;19.25
80962;BMP280;70424;55.154;14.722;2023-07-08T05:28:44;102248.66;;;19.45
80962;BMP280;70424;55.154;14.722;2023-07-08T05:31:10;102251.72;;;19.65
80962;BMP280;70424;55.154;14.722;2023-07-08T05:33:36;102248.91;;;19.79
80962;BMP280;70424;55.154;14.722;2023-07-08T05:36:01;102256.78;;;19.98
80962;BMP280;70424;55.154;14.722;2023-07-08T05:38:27;102251.56;;;20.20
80962;BMP280;70424;55.154;14.722;2023-07-08T05:40:57;102252.41;;;20.38
80962;BMP280;70424;55.154;14.722;2023-07-08T05:43:24;102244.69;;;20.52
80962;BMP280;70424;55.154;14.722;2023-07-08T05:45:49;102245.16;;;20.78
80962;BMP280;70424;55.154;14.722;2023-07-08T05:48:15;102250.53;;;21.06
80962;BMP280;70424;55.154;14.722;2023-07-08T05:50:41;102252.28;;;21.31
80962;BMP280;70424;55.154;14.722;2023-07-08T05:53:09;102250.78;;;21.45
80962;BMP280;70424;55.154;14.722;2023-07-08T05:55:35;102252.34;;;21.66
80962;BMP280;70424;55.154;14.722;2023-07-08T05:58:00;102248.06;;;21.98
80962;BMP280;70424;55.154;14.722;2023-07-08T06:00:26;102247.44;;;22.37
80962;BMP280;70424;55.154;14.722;2023-07-08T06:02:51;102246.69;;;22.74
80962;BMP280;70424;55.154;14.722;2023-07-08T06:05:16;102255.19;;;22.98
80962;BMP280;70424;55.154;14.722;2023-07-08T06:07:42;102249.72;;;23.22
80962;BMP280;70424;55.154;14.722;2023-07-08T06:10:07;102241.78;;;23.58
80962;BMP280;70424;55.154;14.722;2023-07-08T06:12:33;102231.84;;;23.75
80962;BMP280;70424;55.154;14.722;2023-07-08T06:14:58;102230.69;;;24.06
80962;BMP280;70424;55.154;14.722;2023-07-08T06:17:24;102231.53;;;24.36
80962;BMP280;70424;55.154;14.722;2023-07-08T06:19:49;102236.97;;;24.56
80962;BMP280;70424;55.154;14.722;2023-07-08T06:22:14;102232.25;;;24.62
80962;BMP280;70424;55.154;14.722;2023-07-08T06:24:40;102232.25;;;24.62
80962;BMP280;70424;55.154;14.722;2023-07-08T06:27:06;102225.34;;;24.65
80962;BMP280;70424;55.154;14.722;2023-07-08T06:29:33;102233.47;;;24.83
80962;BMP280;70424;55.154;14.722;2023-07-08T06:31:59;102236.34;;;24.85
80962;BMP280;70424;55.154;14.722;2023-07-08T06:34:24;102233.94;;;25.01
80962;BMP280;70424;55.154;14.722;2023-07-08T06:36:49;102238.22;;;25.04
80962;BMP280;70424;55.154;14.722;2023-07-08T06:39:15;102235.13;;;25.20
80962;BMP280;70424;55.154;14.722;2023-07-08T06:41:42;102230.56;;;25.67
80962;BMP280;70424;55.154;14.722;2023-07-08T06:44:07;102238.19;;;26.32
80962;BMP280;70424;55.154;14.722;2023-07-08T06:46:33;102226.28;;;27.12
80962;BMP280;70424;55.154;14.722;2023-07-08T06:48:59;102239.53;;;27.57
80962;BMP280;70424;55.154;14.722;2023-07-08T06:51:25;102230.97;;;28.01
80962;BMP280;70424;55.154;14.722;2023-07-08T06:53:50;102235.50;;;28.33
80962;BMP280;70424;55.154;14.722;2023-07-08T06:56:15;102232.91;;;28.57
80962;BMP280;70424;55.154;14.722;2023-07-08T06:58:41;102233.25;;;28.99
80962;BMP280;70424;55.154;14.722;2023-07-08T07:01:06;102224.38;;;29.51
80962;BMP280;70424;55.154;14.722;2023-07-08T07:03:32;102223.72;;;29.65
80962;BMP280;70424;55.154;14.722;2023-07-08T07:05:57;102229.34;;;29.61
80962;BMP280;70424;55.154;14.722;2023-07-08T07:08:23;102232.88;;;29.58
80962;BMP280;70424;55.154;14.722;2023-07-08T07:10:48;102225.88;;;29.79
80962;BMP280;70424;55.154;14.722;2023-07-08T07:13:14;102228.00;;;29.80
80962;BMP280;70424;55.154;14.722;2023-07-08T07:15:39;102227.31;;;29.94
80962;BMP280;70424;55.154;14.722;2023-07-08T07:18:05;102223.78;;;29.81
80962;BMP280;70424;55.154;14.722;2023-07-08T07:20:30;102234.25;;;29.59
80962;BMP280;70424;55.154;14.722;2023-07-08T07:22:56;102233.53;;;29.56
80962;BMP280;70424;55.154;14.722;2023-07-08T07:25:21;102230.63;;;29.34
80962;BMP280;70424;55.154;14.722;2023-07-08T07:27:47;102241.78;;;29.11
80962;BMP280;70424;55.154;14.722;2023-07-08T07:30:13;102248.50;;;28.66
80962;BMP280;70424;55.154;14.722;2023-07-08T07:32:43;102252.47;;;28.43
80962;BMP280;70424;55.154;14.722;2023-07-08T07:35:10;102246.34;;;28.60
80962;BMP280;70424;55.154;14.722;2023-07-08T07:37:40;102244.31;;;28.73
80962;BMP280;70424;55.154;14.722;2023-07-08T07:40:08;102247.00;;;28.61
80962;BMP280;70424;55.154;14.722;2023-07-08T07:42:41;102234.41;;;28.66
80962;BMP280;70424;55.154;14.722;2023-07-08T07:45:07;102247.97;;;28.92
80962;BMP280;70424;55.154;14.722;2023-07-08T07:47:34;102246.63;;;29.03
80962;BMP280;70424;55.154;14.722;2023-07-08T07:49:59;102253.66;;;29.00
80962;BMP280;70424;55.154;14.722;2023-07-08T07:52:25;102260.78;;;29.13
80962;BMP280;70424;55.154;14.722;2023-07-08T07:54:51;102246.59;;;28.95
80962;BMP280;70424;55.154;14.722;2023-07-08T07:57:17;102242.19;;;28.71
80962;BMP280;70424;55.154;14.722;2023-07-08T07:59:42;102254.22;;;28.82
80962;BMP280;70424;55.154;14.722;2023-07-08T08:02:08;102248.00;;;28.98
80962;BMP280;70424;55.154;14.722;2023-07-08T08:04:34;102248.16;;;29.18
80962;BMP280;70424;55.154;14.722;2023-07-08T08:06:59;102248.94;;;29.33
80962;BMP280;70424;55.154;14.722;2023-07-08T08:09:24;102253.91;;;29.42
80962;BMP280;70424;55.154;14.722;2023-07-08T08:11:50;102246.13;;;29.37
80962;BMP280;70424;55.154;14.722;2023-07-08T08:14:17;102263.59;;;29.11
80962;BMP280;70424;55.154;14.722;2023-07-08T08:16:42;102262.09;;;29.00
80962;BMP280;70424;55.154;14.722;2023-07-08T08:19:07;102264.81;;;28.88
80962;BMP280;70424;55.154;14.722;2023-07-08T08:21:33;102279.72;;;29.00
80962;BMP280;70424;55.154;14.722;2023-07-08T08:23:58;102267.09;;;29.07
80962;BMP280;70424;55.154;14.722;2023-07-08T08:26:25;102263.00;;;29.25
80962;BMP280;70424;55.154;14.722;2023-07-08T08:28:51;102270.00;;;29.22
80962;BMP280;70424;55.154;14.722;2023-07-08T08:31:16;102272.75;;;29.11
80962;BMP280;70424;55.154;14.722;2023-07-08T08:33:41;102262.81;;;29.00
80962;BMP280;70424;55.154;14.722;2023-07-08T08:36:07;102264.09;;;28.81
80962;BMP280;70424;55.154;14.722;2023-07-08T08:38:32;102265.44;;;28.74
80962;BMP280;70424;55.154;14.722;2023-07-08T08:40:57;102273.28;;;28.88
80962;BMP280;70424;55.154;14.722;2023-07-08T08:43:33;102270.56;;;29.04
80962;BMP280;70424;55.154;14.722;2023-07-08T08:46:06;102272.69;;;29.03
80962;BMP280;70424;55.154;14.722;2023-07-08T08:48:41;102270.44;;;28.84
80962;BMP280;70424;55.154;14.722;2023-07-08T08:51:14;102278.06;;;28.69
80962;BMP280;70424;55.154;14.722;2023-07-08T08:53:40;102280.25;;;28.83
80962;BMP280;70424;55.154;14.722;2023-07-08T08:56:20;102279.03;;;29.06
80962;BMP280;70424;55.154;14.722;2023-07-08T08:59:01;102278.41;;;29.13
80962;BMP280;70424;55.154;14.722;2023-07-08T09:01:30;102274.25;;;29.27
80962;BMP280;70424;55.154;14.722;2023-07-08T09:04:00;102269.41;;;29.39
80962;BMP280;70424;55.154;14.722;2023-07-08T09:06:30;102277.19;;;29.49
80962;BMP280;70424;55.154;14.722;2023-07-08T09:09:01;102271.63;;;29.61
80962;BMP280;70424;55.154;14.722;2023-07-08T09:11:40;102271.63;;;29.57
80962;BMP280;70424;55.154;14.722;2023-07-08T09:14:16;102275.22;;;29.78
80962;BMP280;70424;55.154;14.722;2023-07-08T09:16:58;102277.31;;;29.71
80962;BMP280;70424;55.154;14.722;2023-07-08T09:19:32;102278.69;;;29.64
80962;BMP280;70424;55.154;14.722;2023-07-08T09:22:15;102271.66;;;29.71
80962;BMP280;70424;55.154;14.722;2023-07-08T09:25:13;102269.63;;;29.96
80962;BMP280;70424;55.154;14.722;2023-07-08T09:27:46;102268.28;;;30.23
80962;BMP280;70424;55.154;14.722;2023-07-08T09:30:16;102266.88;;;30.40
80962;BMP280;70424;55.154;14.722;2023-07-08T09:32:42;102262.66;;;30.52
80962;BMP280;70424;55.154;14.722;2023-07-08T09:35:09;102259.84;;;30.62
80962;BMP280;70424;55.154;14.722;2023-07-08T09:37:46;102257.03;;;30.72
80962;BMP280;70424;55.154;14.722;2023-07-08T09:40:27;102249.97;;;30.57
80962;BMP280;70424;55.154;14.722;2023-07-08T09:43:00;102266.19;;;30.76
80962;BMP280;70424;55.154;14.722;2023-07-08T09:45:28;102272.53;;;30.81
80962;BMP280;70424;55.154;14.722;2023-07-08T09:48:01;102274.66;;;30.70
80962;BMP280;70424;55.154;14.722;2023-07-08T09:50:28;102276.78;;;30.88
80962;BMP280;70424;55.154;14.722;2023-07-08T09:52:55;102271.78;;;31.05
80962;BMP280;70424;55.154;14.722;2023-07-08T09:55:22;102284.50;;;31.04
80962;BMP280;70424;55.154;14.722;2023-07-08T09:57:50;102281.72;;;30.85
80962;BMP280;70424;55.154;14.722;2023-07-08T10:00:18;102283.13;;;30.64
80962;BMP280;70424;55.154;14.722;2023-07-08T10:07:37;102276.09;;;30.75
80962;BMP280;70424;55.154;14.722;2023-07-08T10:10:06;102276.75;;;30.96
80962;BMP280;70424;55.154;14.722;2023-07-08T10:12:34;102268.25;;;31.04
80962;BMP280;70424;55.154;14.722;2023-07-08T10:15:01;102268.94;;;31.15
80962;BMP280;70424;55.154;14.722;2023-07-08T10:17:31;102273.13;;;31.40
80962;BMP280;70424;55.154;14.722;2023-07-08T10:19:58;102273.03;;;31.56
80962;BMP280;70424;55.154;14.722;2023-07-08T10:27:40;102273.63;;;31.81
80962;BMP280;70424;55.154;14.722;2023-07-08T10:30:19;102273.03;;;31.64
80962;BMP280;70424;55.154;14.722;2023-07-08T10:32:59;102274.34;;;31.80
80962;BMP280;70424;55.154;14.722;2023-07-08T10:35:35;102269.81;;;32.21
80962;BMP280;70424;55.154;14.722;2023-07-08T10:46:26;102274.44;;;32.65
80962;BMP280;70424;55.154;14.722;2023-07-08T10:49:24;102275.72;;;32.80
80962;BMP280;70424;55.154;14.722;2023-07-08T10:52:51;102282.66;;;32.91
80962;BMP280;70424;55.154;14.722;2023-07-08T10:55:16;102277.34;;;32.57
80962;BMP280;70424;55.154;14.722;2023-07-08T10:58:13;102281.28;;;32.88
80962;BMP280;70424;55.154;14.722;2023-07-08T11:00:49;102278.56;;;33.37
80962;BMP280;70424;55.154;14.722;2023-07-08T11:05:46;102266.44;;;34.76
80962;BMP280;70424;55.154;14.722;2023-07-08T11:08:23;102267.88;;;35.42
80962;BMP280;70424;55.154;14.722;2023-07-08T11:10:56;102258.84;;;36.22
80962;BMP280;70424;55.154;14.722;2023-07-08T11:13:26;102265.00;;;37.07
80962;BMP280;70424;55.154;14.722;2023-07-08T11:16:07;102272.72;;;37.56
80962;BMP280;70424;55.154;14.722;2023-07-08T11:18:47;102273.69;;;37.92
80962;BMP280;70424;55.154;14.722;2023-07-08T11:21:20;102267.81;;;38.37
80962;BMP280;70424;55.154;14.722;2023-07-08T11:23:50;102263.84;;;38.28
80962;BMP280;70424;55.154;14.722;2023-07-08T11:29:15;102262.06;;;35.49
80962;BMP280;70424;55.154;14.722;2023-07-08T11:31:42;102252.22;;;35.44
80962;BMP280;70424;55.154;14.722;2023-07-08T11:34:10;102263.94;;;35.60
80962;BMP280;70424;55.154;14.722;2023-07-08T11:36:37;102268.69;;;35.39
80962;BMP280;70424;55.154;14.722;2023-07-08T11:39:41;102259.75;;;35.26
80962;BMP280;70424;55.154;14.722;2023-07-08T11:44:58;102257.16;;;35.12
80962;BMP280;70424;55.154;14.722;2023-07-08T11:47:41;102266.16;;;35.86
80962;BMP280;70424;55.154;14.722;2023-07-08T11:52:53;102252.72;;;37.79
80962;BMP280;70424;55.154;14.722;2023-07-08T11:55:55;102258.72;;;38.89
80962;BMP280;70424;55.154;14.722;2023-07-08T11:58:24;102262.31;;;39.60
80962;BMP280;70424;55.154;14.722;2023-07-08T12:03:37;102261.75;;;39.89
80962;BMP280;70424;55.154;14.722;2023-07-08T12:06:03;102262.16;;;39.46
80962;BMP280;70424;55.154;14.722;2023-07-08T12:08:48;102265.44;;;39.00
80962;BMP280;70424;55.154;14.722;2023-07-08T12:11:14;102267.22;;;38.14
80962;BMP280;70424;55.154;14.722;2023-07-08T12:13:39;102267.25;;;37.03
80962;BMP280;70424;55.154;14.722;2023-07-08T12:16:10;102255.84;;;35.07
80962;BMP280;70424;55.154;14.722;2023-07-08T12:18:38;102259.03;;;34.13
80962;BMP280;70424;55.154;14.722;2023-07-08T12:21:07;102261.94;;;33.05
80962;BMP280;70424;55.154;14.722;2023-07-08T12:23:32;102266.25;;;32.31
80962;BMP280;70424;55.154;14.722;2023-07-08T12:25:58;102262.56;;;31.24
80962;BMP280;70424;55.154;14.722;2023-07-08T12:28:24;102264.78;;;30.67
80962;BMP280;70424;55.154;14.722;2023-07-08T12:30:50;102260.56;;;30.48
80962;BMP280;70424;55.154;14.722;2023-07-08T12:33:19;102249.22;;;30.20
80962;BMP280;70424;55.154;14.722;2023-07-08T12:35:46;102251.97;;;29.77
80962;BMP280;70424;55.154;14.722;2023-07-08T12:38:30;102257.50;;;29.55
80962;BMP280;70424;55.154;14.722;2023-07-08T12:41:00;102255.38;;;29.53
80962;BMP280;70424;55.154;14.722;2023-07-08T12:43:26;102254.72;;;29.57
80962;BMP280;70424;55.154;14.722;2023-07-08T12:45:51;102251.13;;;29.46
80962;BMP280;70424;55.154;14.722;2023-07-08T12:48:17;102251.81;;;29.43
80962;BMP280;70424;55.154;14.722;2023-07-08T12:50:42;102244.16;;;29.68
80962;BMP280;70424;55.154;14.722;2023-07-08T12:53:08;102249.16;;;29.77
80962;BMP280;70424;55.154;14.722;2023-07-08T12:55:39;102234.41;;;29.97
80962;BMP280;70424;55.154;14.722;2023-07-08T12:58:07;102239.38;;;30.33
80962;BMP280;70424;55.154;14.722;2023-07-08T13:00:38;102249.28;;;30.80
80962;BMP280;70424;55.154;14.722;2023-07-08T13:03:14;102242.72;;;31.37
80962;BMP280;70424;55.154;14.722;2023-07-08T13:05:41;102253.91;;;31.71
80962;BMP280;70424;55.154;14.722;2023-07-08T13:08:11;102247.88;;;32.26
80962;BMP280;70424;55.154;14.722;2023-07-08T13:10:37;102246.81;;;32.63
80962;BMP280;70424;55.154;14.722;2023-07-08T13:13:06;102234.25;;;33.12
80962;BMP280;70424;55.154;14.722;2023-07-08T13:15:38;102245.91;;;33.42
80962;BMP280;70424;55.154;14.722;2023-07-08T13:18:18;102241.34;;;33.11
80962;BMP280;70424;55.154;14.722;2023-07-08T13:20:50;102233.66;;;32.32
80962;BMP280;70424;55.154;14.722;2023-07-08T13:23:17;102240.41;;;31.84
80962;BMP280;70424;55.154;14.722;2023-07-08T13:25:43;102240.56;;;31.51
80962;BMP280;70424;55.154;14.722;2023-07-08T13:28:16;102240.59;;;31.47
80962;BMP280;70424;55.154;14.722;2023-07-08T13:33:18;102237.03;;;34.14
80962;BMP280;70424;55.154;14.722;2023-07-08T13:35:45;102238.31;;;35.91
80962;BMP280;70424;55.154;14.722;2023-07-08T13:38:21;102231.41;;;37.55
80962;BMP280;70424;55.154;14.722;2023-07-08T13:40:54;102239.22;;;38.19
80962;BMP280;70424;55.154;14.722;2023-07-08T13:43:28;102238.88;;;38.85
80962;BMP280;70424;55.154;14.722;2023-07-08T13:45:54;102239.78;;;38.98
80962;BMP280;70424;55.154;14.722;2023-07-08T13:48:41;102246.97;;;38.41
80962;BMP280;70424;55.154;14.722;2023-07-08T13:51:11;102240.69;;;38.55
80962;BMP280;70424;55.154;14.722;2023-07-08T13:58:44;102241.72;;;38.48
80962;BMP280;70424;55.154;14.722;2023-07-08T14:01:17;102236.91;;;38.03
80962;BMP280;70424;55.154;14.722;2023-07-08T14:03:42;102241.66;;;37.69
80962;BMP280;70424;55.154;14.722;2023-07-08T14:06:15;102239.53;;;37.47
80962;BMP280;70424;55.154;14.722;2023-07-08T14:08:41;102249.03;;;36.69
80962;BMP280;70424;55.154;14.722;2023-07-08T14:11:07;102238.94;;;36.47
80962;BMP280;70424;55.154;14.722;2023-07-08T14:13:33;102239.81;;;36.42
80962;BMP280;70424;55.154;14.722;2023-07-08T14:15:58;102233.53;;;36.10
80962;BMP280;70424;55.154;14.722;2023-07-08T14:18:24;102230.66;;;35.83
80962;BMP280;70424;55.154;14.722;2023-07-08T14:20:49;102230.09;;;35.48
80962;BMP280;70424;55.154;14.722;2023-07-08T14:23:15;102223.41;;;34.96
80962;BMP280;70424;55.154;14.722;2023-07-08T14:25:40;102221.94;;;34.25
80962;BMP280;70424;55.154;14.722;2023-07-08T14:28:06;102223.47;;;33.75
80962;BMP280;70424;55.154;14.722;2023-07-08T14:30:33;102220.78;;;33.14
80962;BMP280;70424;55.154;14.722;2023-07-08T14:32:59;102222.69;;;32.71
80962;BMP280;70424;55.154;14.722;2023-07-08T14:35:28;102215.34;;;32.21